Time;durP1;ratioP1;P1;durP2;ratioP2;P2;SDS_P1;SDS_P2;PMS_P1;PMS_P2;Temp;Humidity;BMP_temperature;BMP_pressure;BME280_temperature;BME280_humidity;BME280_pressure;Samples;Min_cycle;Max_cycle;Signal;HPM_P1;HPM_P2
2023/06/27 00:02:15;;;;;;;6.90;5.22;;;;;;;15.18;100.00;96548.25;5013441;28;20026;-88
2023/06/27 00:04:41;;;;;;;8.55;5.50;;;;;;;15.20;100.00;96538.47;4998641;28;20021;-89
2023/06/27 00:07:10;;;;;;;10.75;5.45;;;;;;;15.17;100.00;96523.13;4990373;28;20033;-88
2023/06/27 00:09:36;;;;;;;13.40;6.10;;;;;;;15.17;100.00;96518.72;4992343;28;20481;-87
2023/06/27 00:12:01;;;;;;;10.52;5.30;;;;;;;15.17;100.00;96503.06;5000840;28;20033;-87
2023/06/27 00:14:27;;;;;;;11.50;5.70;;;;;;;15.27;100.00;96513.38;5002230;28;20037;-87
2023/06/27 00:16:52;;;;;;;7.78;6.03;;;;;;;15.29;100.00;96508.78;4997351;28;20033;-88
2023/06/27 00:19:18;;;;;;;6.60;5.63;;;;;;;15.27;100.00;96500.31;5001923;28;20022;-87
2023/06/27 00:21:44;;;;;;;9.07;6.43;;;;;;;15.14;100.00;96489.53;4998234;28;20029;-87
2023/06/27 00:24:10;;;;;;;9.30;6.13;;;;;;;15.10;100.00;96486.41;4990506;28;20025;-88
2023/06/27 00:26:36;;;;;;;11.27;6.75;;;;;;;15.03;100.00;96493.25;4991577;28;20561;-89
2023/06/27 00:29:02;;;;;;;9.20;5.43;;;;;;;14.92;100.00;96493.56;5002309;28;20017;-88
2023/06/27 00:31:28;;;;;;;9.98;6.20;;;;;;;14.94;100.00;96507.25;4993069;28;20037;-87
2023/06/27 00:33:53;;;;;;;7.00;5.50;;;;;;;14.91;100.00;96494.53;5001267;28;20009;-83
2023/06/27 00:36:19;;;;;;;10.93;6.30;;;;;;;14.95;100.00;96505.47;5003011;28;20044;-87
2023/06/27 00:38:44;;;;;;;6.07;5.10;;;;;;;14.87;100.00;96501.03;4996856;28;20473;-87
2023/06/27 00:41:10;;;;;;;11.52;5.55;;;;;;;14.86;100.00;96494.19;4992875;28;20031;-86
2023/06/27 00:43:35;;;;;;;8.50;5.90;;;;;;;14.75;100.00;96484.84;4991007;28;20120;-88
2023/06/27 00:46:03;;;;;;;8.88;5.97;;;;;;;14.79;100.00;96498.41;5002068;28;20021;-88
2023/06/27 00:48:29;;;;;;;10.07;6.95;;;;;;;14.92;100.00;96517.03;4991971;28;20038;-86
2023/06/27 00:50:55;;;;;;;7.40;6.70;;;;;;;15.02;100.00;96519.50;4999820;28;20033;-86
2023/06/27 00:53:21;;;;;;;10.65;7.25;;;;;;;14.76;100.00;96501.34;4987465;28;20850;-88
2023/06/27 00:55:46;;;;;;;8.52;7.30;;;;;;;14.71;100.00;96506.19;4988076;28;20101;-86
2023/06/27 00:58:12;;;;;;;12.80;5.90;;;;;;;14.78;100.00;96513.22;4991112;28;20093;-86
2023/06/27 01:00:38;;;;;;;9.10;6.38;;;;;;;14.80;100.00;96520.09;4993848;28;20597;-87
2023/06/27 01:03:03;;;;;;;10.60;6.75;;;;;;;14.71;100.00;96508.78;4996843;28;20439;-87
2023/06/27 01:05:29;;;;;;;8.30;6.40;;;;;;;14.69;100.00;96505.53;5001258;28;20131;-87
2023/06/27 01:08:04;;;;;;;9.50;5.15;;;;;;;14.87;100.00;96516.69;4996197;28;20615;-86
2023/06/27 01:10:58;;;;;;;9.63;6.05;;;;;;;14.82;100.00;96502.47;5001327;28;20034;-85
2023/06/27 01:13:32;;;;;;;8.80;5.68;;;;;;;14.87;100.00;96490.59;4996757;28;20032;-87
2023/06/27 01:15:58;;;;;;;8.43;5.90;;;;;;;14.81;100.00;96472.16;4992853;28;20072;-85
2023/06/27 01:18:26;;;;;;;8.43;6.07;;;;;;;14.73;100.00;96459.91;4987566;28;20096;-86
2023/06/27 01:20:51;;;;;;;9.13;6.53;;;;;;;14.77;100.00;96463.81;4990592;28;20071;-86
2023/06/27 01:23:32;;;;;;;7.25;6.68;;;;;;;14.80;100.00;96468.75;4989901;28;20021;-86
2023/06/27 01:26:05;;;;;;;12.85;7.82;;;;;;;14.69;100.00;96482.06;5006935;28;20033;-84
2023/06/27 01:28:32;;;;;;;9.35;7.53;;;;;;;14.71;100.00;96483.53;4985231;28;20587;-85
2023/06/27 01:31:01;;;;;;;8.63;6.63;;;;;;;14.60;100.00;96483.00;4974408;28;20112;-84
2023/06/27 01:33:45;;;;;;;7.40;6.60;;;;;;;14.52;100.00;96486.41;4989177;28;20046;-84
2023/06/27 01:36:20;;;;;;;6.70;6.07;;;;;;;14.46;100.00;96492.25;5001481;28;20029;-85
2023/06/27 01:39:16;;;;;;;8.07;6.40;;;;;;;14.48;100.00;96498.09;4995946;28;20040;-85
2023/06/27 01:41:45;;;;;;;8.65;7.85;;;;;;;14.35;100.00;96502.13;4976508;28;20049;-83
2023/06/27 01:44:12;;;;;;;8.20;7.40;;;;;;;14.36;100.00;96503.75;5004391;28;20026;-85
2023/06/27 01:46:38;;;;;;;15.45;8.10;;;;;;;14.45;100.00;96508.84;4992075;28;20034;-82
2023/06/27 01:49:03;;;;;;;8.20;7.38;;;;;;;14.46;100.00;96518.31;4997248;28;20522;-84
2023/06/27 01:51:29;;;;;;;10.75;7.45;;;;;;;14.35;100.00;96502.13;4999490;28;20053;-85
2023/06/27 01:53:55;;;;;;;9.75;8.07;;;;;;;14.38;100.00;96504.44;5000946;28;20037;-84
2023/06/27 01:56:20;;;;;;;11.88;8.30;;;;;;;14.33;100.00;96502.28;4988487;28;20021;-84
2023/06/27 01:58:47;;;;;;;13.82;9.05;;;;;;;14.35;100.00;96502.13;5016299;28;20037;-84
2023/06/27 02:01:12;;;;;;;13.48;8.82;;;;;;;14.43;100.00;96513.41;5005838;28;20065;-86
2023/06/27 02:03:38;;;;;;;11.48;9.32;;;;;;;14.38;100.00;96509.66;4992133;28;20111;-83
2023/06/27 02:06:03;;;;;;;9.82;8.90;;;;;;;14.38;100.00;96515.69;4994827;28;20037;-85
2023/06/27 02:08:29;;;;;;;16.00;10.32;;;;;;;14.44;100.00;96528.09;5003568;28;20033;-84
2023/06/27 02:10:54;;;;;;;14.23;10.45;;;;;;;14.50;100.00;96531.84;4993455;28;20033;-84
2023/06/27 02:13:20;;;;;;;9.30;8.48;;;;;;;14.54;100.00;96538.41;5003344;28;20029;-84
2023/06/27 02:15:45;;;;;;;9.32;8.48;;;;;;;14.45;100.00;96527.09;5004372;28;20075;-84
2023/06/27 02:18:11;;;;;;;11.20;7.88;;;;;;;14.33;100.00;96504.03;4999871;28;20030;-84
2023/06/27 02:20:36;;;;;;;10.10;6.72;;;;;;;14.37;100.00;96508.00;5003769;28;20506;-82
2023/06/27 02:23:02;;;;;;;12.77;8.18;;;;;;;14.35;100.00;96500.34;4998171;28;20022;-82
2023/06/27 02:25:27;;;;;;;12.40;8.25;;;;;;;14.34;100.00;96500.50;4987912;28;20240;-83
2023/06/27 02:27:53;;;;;;;10.25;8.27;;;;;;;14.30;100.00;96489.53;5004201;28;20034;-81
2023/06/27 02:30:19;;;;;;;24.00;10.25;;;;;;;14.11;100.00;96482.75;5003068;28;20030;-83
2023/06/27 02:32:44;;;;;;;12.35;9.27;;;;;;;13.97;100.00;96490.28;4994308;28;20119;-82
2023/06/27 02:35:14;;;;;;;7.68;6.97;;;;;;;14.11;100.00;96498.38;4991743;28;20475;-81
2023/06/27 02:37:40;;;;;;;9.35;6.32;;;;;;;14.10;100.00;96494.13;5003927;28;20083;-81
2023/06/27 02:40:06;;;;;;;9.40;7.28;;;;;;;14.08;100.00;96483.06;5015611;28;20033;-83
2023/06/27 02:42:32;;;;;;;9.35;8.05;;;;;;;14.12;100.00;96483.56;4987254;28;20095;-82
2023/06/27 02:44:57;;;;;;;12.60;9.20;;;;;;;14.07;100.00;96491.03;4996477;28;20037;-81
2023/06/27 02:47:23;;;;;;;13.55;8.60;;;;;;;14.05;100.00;96504.22;4989083;28;20410;-81
2023/06/27 02:49:48;;;;;;;14.15;10.68;;;;;;;14.04;100.00;96499.97;5019281;28;20041;-80
2023/06/27 02:52:14;;;;;;;10.43;8.95;;;;;;;14.06;100.00;96497.22;5013924;28;20041;-80
2023/06/27 02:54:39;;;;;;;11.10;9.25;;;;;;;14.04;100.00;96506.97;4992053;28;20033;-84
2023/06/27 02:57:05;;;;;;;16.73;9.23;;;;;;;14.06;100.00;96507.66;5010530;28;20105;-82
2023/06/27 02:59:30;;;;;;;11.68;9.15;;;;;;;14.09;100.00;96509.94;5003230;28;20116;-81
2023/06/27 03:01:56;;;;;;;9.75;8.95;;;;;;;14.09;100.00;96510.75;5003324;28;20025;-82
2023/06/27 03:04:21;;;;;;;13.07;9.77;;;;;;;14.08;100.00;96516.13;5002788;28;20041;-80
2023/06/27 03:06:47;;;;;;;11.40;8.75;;;;;;;14.15;100.00;96519.75;5003241;28;20104;-83
2023/06/27 03:09:12;;;;;;;10.45;8.30;;;;;;;14.24;100.00;96519.63;5004302;28;20033;-82
2023/06/27 03:11:38;;;;;;;9.60;8.35;;;;;;;14.26;100.00;96516.88;4989340;28;20099;-80
2023/06/27 03:14:03;;;;;;;11.13;9.77;;;;;;;14.28;100.00;96509.72;5002102;28;20030;-80
2023/06/27 03:16:28;;;;;;;9.80;8.90;;;;;;;14.34;100.00;96505.72;5003321;28;20402;-82
2023/06/27 03:18:54;;;;;;;11.73;9.13;;;;;;;14.36;100.00;96499.34;5002090;28;20022;-84
2023/06/27 03:21:19;;;;;;;10.63;9.55;;;;;;;14.42;100.00;96505.72;4996883;28;20030;-79
2023/06/27 03:23:45;;;;;;;20.67;10.85;;;;;;;14.45;100.00;96493.22;5005469;28;20034;-77
2023/06/27 03:26:10;;;;;;;16.90;13.93;;;;;;;14.52;100.00;96490.78;4994179;28;20469;-78
2023/06/27 03:28:36;;;;;;;16.02;14.60;;;;;;;14.74;100.00;96470.19;4989741;28;20058;-78
2023/06/27 03:31:01;;;;;;;14.30;8.60;;;;;;;15.02;100.00;96434.22;4991707;28;20096;-79
2023/06/27 03:33:27;;;;;;;8.07;7.20;;;;;;;16.12;100.00;96269.78;5009456;28;20129;-78
2023/06/27 03:35:52;;;;;;;7.13;6.53;;;;;;;16.94;100.00;95768.34;5001602;28;20028;-76
2023/06/27 03:38:17;;;;;;;8.13;6.93;;;;;;;17.52;100.00;95279.09;4996580;28;20863;-77
2023/06/27 03:40:43;;;;;;;5.97;5.38;;;;;;;18.01;100.00;95045.25;5004685;28;20089;-76
2023/06/27 03:43:13;;;;;;;6.35;5.05;;;;;;;18.53;100.00;94949.56;4993781;28;20025;-78
2023/06/27 03:45:40;;;;;;;5.30;4.35;;;;;;;18.95;100.00;94901.38;4988691;28;20033;-79
2023/06/27 03:48:06;;;;;;;5.72;4.78;;;;;;;19.40;100.00;94842.13;5001472;28;20022;-78
2023/06/27 03:50:32;;;;;;;7.07;5.22;;;;;;;19.63;100.00;94825.56;4998588;28;20182;-78
2023/06/27 03:52:59;;;;;;;8.88;5.18;;;;;;;19.85;100.00;94823.13;5007384;28;20028;-79
2023/06/27 03:55:25;;;;;;;7.50;4.63;;;;;;;20.18;100.00;94807.53;4991941;28;20041;-79
2023/06/27 03:57:50;;;;;;;8.90;4.80;;;;;;;20.41;100.00;94809.31;5001915;28;20090;-79
2023/06/27 04:00:16;;;;;;;7.35;4.68;;;;;;;20.65;100.00;94804.72;4997916;28;20048;-79
2023/06/27 04:02:42;;;;;;;5.10;4.60;;;;;;;20.62;100.00;94784.13;4996929;28;20075;-79
2023/06/27 04:05:08;;;;;;;6.82;5.05;;;;;;;21.18;100.00;94783.28;4985094;28;20053;-79
2023/06/27 04:07:33;;;;;;;5.57;4.53;;;;;;;20.61;100.00;94774.66;5003960;28;20029;-80
2023/06/27 04:09:59;;;;;;;7.85;5.03;;;;;;;19.12;100.00;94841.94;5013567;28;20017;-79
2023/06/27 04:12:24;;;;;;;5.45;5.05;;;;;;;18.83;100.00;94896.09;4998032;28;20080;-76
2023/06/27 04:14:49;;;;;;;6.90;6.05;;;;;;;18.49;100.00;94958.88;5001820;28;20029;-77
2023/06/27 04:17:15;;;;;;;9.65;5.72;;;;;;;18.81;100.00;94970.84;5001603;28;20060;-78
2023/06/27 04:19:40;;;;;;;6.55;5.75;;;;;;;18.59;100.00;95004.56;5001735;28;20037;-77
2023/06/27 04:22:06;;;;;;;5.68;5.28;;;;;;;21.43;100.00;94833.72;4992037;28;20109;-80
2023/06/27 04:24:31;;;;;;;7.60;5.28;;;;;;;21.91;100.00;94775.09;4989080;28;20034;-79
2023/06/27 04:26:57;;;;;;;6.78;5.40;;;;;;;22.78;100.00;94757.31;5001109;28;20021;-79
2023/06/27 04:29:22;;;;;;;11.20;5.72;;;;;;;23.38;100.00;94742.97;5002096;28;21237;-80
2023/06/27 04:31:47;;;;;;;8.55;5.68;;;;;;;24.10;100.00;94737.81;5001615;28;20582;-80
2023/06/27 04:34:13;;;;;;;5.10;4.70;;;;;;;24.60;100.00;94737.16;4992875;28;20028;-80
2023/06/27 04:36:40;;;;;;;5.70;5.22;;;;;;;25.01;100.00;94740.66;4982093;28;20025;-80
2023/06/27 04:39:06;;;;;;;;;;;;;;;25.05;100.00;94733.75;5013717;28;20043;-79
2023/06/27 04:41:31;;;;;;;6.50;5.20;;;;;;;24.30;100.00;94737.91;4997465;28;19913;-80
2023/06/27 04:43:58;;;;;;;5.20;4.90;;;;;;;25.24;100.00;94740.09;5014973;28;20014;-80
2023/06/27 04:46:28;;;;;;;6.15;5.55;;;;;;;25.10;100.00;94741.72;5001741;28;20357;-80
2023/06/27 04:48:56;;;;;;;6.13;5.53;;;;;;;26.07;100.00;94737.81;5000396;28;20060;-80
2023/06/27 04:51:23;;;;;;;9.43;5.55;;;;;;;25.71;100.00;94739.00;5001400;28;20062;-81
2023/06/27 04:53:48;;;;;;;8.10;6.03;;;;;;;25.55;100.00;94728.44;4996850;28;20075;-81
2023/06/27 04:56:14;;;;;;;12.80;5.40;;;;;;;26.34;100.00;94735.56;4992230;28;20017;-82
2023/06/27 04:58:39;;;;;;;6.07;5.47;;;;;;;26.65;95.73;94734.31;5012970;28;20040;-81
2023/06/27 05:01:05;;;;;;;6.43;5.70;;;;;;;26.28;96.86;94733.22;5007559;28;20026;-82
2023/06/27 05:03:30;;;;;;;5.93;5.10;;;;;;;26.90;95.54;94737.91;5000995;28;20524;-83
2023/06/27 05:05:56;;;;;;;5.80;5.30;;;;;;;27.34;89.72;94727.16;5000242;28;20281;-82
2023/06/27 05:08:21;;;;;;;7.22;5.38;;;;;;;27.23;89.95;94724.59;5001212;28;20269;-82
2023/06/27 05:10:47;;;;;;;7.63;6.35;;;;;;;26.89;91.74;94737.13;5000360;28;20514;-82
2023/06/27 05:13:12;;;;;;;6.97;6.15;;;;;;;27.77;87.19;94732.31;5000972;28;20523;-82
2023/06/27 05:15:38;;;;;;;6.18;5.78;;;;;;;28.57;79.16;94732.44;5000566;28;20018;-83
2023/06/27 05:18:06;;;;;;;6.07;5.68;;;;;;;29.19;76.56;94733.88;5000990;28;20107;-83
2023/06/27 05:20:31;;;;;;;8.30;6.30;;;;;;;29.62;71.61;94739.84;5000643;28;20026;-83
2023/06/27 05:22:57;;;;;;;7.47;5.27;;;;;;;29.85;70.94;94735.44;5005706;28;20087;-83
2023/06/27 05:25:22;;;;;;;7.73;6.00;;;;;;;30.66;64.99;94742.63;5021492;28;20045;-84
2023/06/27 05:27:47;;;;;;;7.00;6.30;;;;;;;30.81;63.02;94739.59;5020400;28;20072;-83
2023/06/27 05:30:13;;;;;;;6.38;5.38;;;;;;;32.24;57.40;94724.19;5021339;28;20030;-83
2023/06/27 05:32:38;;;;;;;6.90;6.27;;;;;;;32.37;56.95;94734.78;5028154;28;20049;-83
2023/06/27 05:35:04;;;;;;;6.77;6.13;;;;;;;32.49;56.61;94742.25;5001876;28;20026;-83
2023/06/27 05:37:30;;;;;;;6.30;5.83;;;;;;;33.26;53.35;94738.81;5001570;28;20037;-83
2023/06/27 05:39:55;;;;;;;6.37;5.43;;;;;;;32.11;56.31;94733.91;4989971;28;20104;-82
2023/06/27 05:42:20;;;;;;;6.03;5.40;;;;;;;33.43;53.07;94736.09;4996286;28;20120;-83
2023/06/27 05:44:46;;;;;;;6.07;5.47;;;;;;;33.26;54.01;94736.94;5020752;28;20063;-85
2023/06/27 05:47:12;;;;;;;6.73;6.17;;;;;;;34.47;50.77;94731.13;5024603;28;20056;-83
2023/06/27 05:49:37;;;;;;;5.83;5.17;;;;;;;34.87;49.34;94735.75;5026703;28;20024;-83
2023/06/27 05:52:03;;;;;;;5.77;4.90;;;;;;;34.64;49.42;94734.53;4994208;28;20025;-81
2023/06/27 05:54:28;;;;;;;7.00;5.03;;;;;;;33.28;51.51;94736.59;5010885;28;20034;-84
2023/06/27 05:56:53;;;;;;;5.67;5.17;;;;;;;34.68;48.96;94738.13;5005408;28;20124;-82
2023/06/27 05:59:19;;;;;;;5.57;5.07;;;;;;;35.57;47.60;94742.13;5030994;28;20040;-83
2023/06/27 06:01:45;;;;;;;5.43;5.03;;;;;;;36.03;45.51;94732.88;4988596;28;20079;-83
2023/06/27 06:04:10;;;;;;;5.30;4.80;;;;;;;35.64;46.53;94744.31;5021982;28;20040;-83
2023/06/27 06:06:38;;;;;;;5.03;4.60;;;;;;;35.88;43.53;94734.34;5023685;28;20037;-85
2023/06/27 06:09:05;;;;;;;4.90;4.50;;;;;;;36.22;45.59;94735.09;4992284;28;20575;-82
2023/06/27 06:11:31;;;;;;;6.00;5.25;;;;;;;36.37;44.86;94737.88;4998725;28;20082;-84
2023/06/27 06:13:56;;;;;;;;;;;;;;;35.04;45.64;94750.19;4994106;28;20029;-80
2023/06/27 06:16:22;;;;;;;;;;;;;;;35.69;44.71;94744.88;5011278;28;19913;-83
2023/06/27 06:18:48;;;;;;;6.90;4.97;;;;;;;36.36;43.04;94735.50;5003817;28;20383;-84
2023/06/27 06:21:13;;;;;;;5.95;5.00;;;;;;;36.38;44.71;94727.88;4995594;28;20326;-82
2023/06/27 06:23:40;;;;;;;5.38;4.78;;;;;;;35.94;45.22;94735.69;5004795;28;20538;-83
2023/06/27 06:26:05;;;;;;;6.20;4.95;;;;;;;35.92;45.08;94740.66;5002706;28;20488;-84
2023/06/27 06:28:30;;;;;;;6.28;5.78;;;;;;;34.85;46.66;94734.50;5001146;28;20018;-85
2023/06/27 06:30:56;;;;;;;5.75;5.25;;;;;;;32.48;52.51;94731.81;4991642;28;20712;-85
2023/06/27 06:33:22;;;;;;;5.93;5.32;;;;;;;30.14;65.35;94725.25;4987084;28;20033;-84
2023/06/27 06:35:48;;;;;;;6.13;5.55;;;;;;;29.97;67.53;94724.25;5002995;28;20084;-83
2023/06/27 06:38:13;;;;;;;5.03;4.50;;;;;;;30.03;67.36;94734.53;4994742;28;20025;-82
2023/06/27 06:40:38;;;;;;;5.05;4.65;;;;;;;29.49;66.81;94718.44;4986784;28;20481;-84
2023/06/27 06:43:04;;;;;;;7.70;4.80;;;;;;;30.56;65.05;94726.78;4993172;28;20190;-85
2023/06/27 06:45:29;;;;;;;5.88;4.90;;;;;;;33.71;52.12;94712.34;5005516;28;20091;-81
2023/06/27 06:47:55;;;;;;;5.80;5.28;;;;;;;34.90;46.67;94718.94;5002544;28;20032;-91
2023/06/27 06:50:20;;;;;;;6.15;5.65;;;;;;;34.76;48.75;94720.34;5015033;28;20045;-84
2023/06/27 06:52:45;;;;;;;7.43;5.45;;;;;;;31.50;59.82;94715.22;5004989;28;20018;-84
2023/06/27 06:55:11;;;;;;;6.15;5.60;;;;;;;30.12;62.23;94714.03;5002871;28;20450;-85
2023/06/27 06:57:36;;;;;;;7.22;5.80;;;;;;;29.68;62.40;94706.59;4998906;28;20126;-84
2023/06/27 07:00:04;;;;;;;7.85;5.97;;;;;;;29.73;66.77;94711.84;5003847;28;20030;-84
2023/06/27 07:02:29;;;;;;;5.85;5.40;;;;;;;29.99;65.68;94709.50;4994229;28;20032;-86
2023/06/27 07:04:54;;;;;;;5.85;5.40;;;;;;;30.12;66.53;94713.25;5002966;28;20029;-83
2023/06/27 07:07:23;;;;;;;5.28;4.60;;;;;;;30.43;66.53;94716.13;5000518;28;20022;-84
2023/06/27 07:09:48;;;;;;;5.68;5.15;;;;;;;33.32;56.02;94716.84;5004681;28;20088;-84
2023/06/27 07:12:13;;;;;;;6.60;5.00;;;;;;;34.66;50.54;94718.81;4988071;28;20038;-84
2023/06/27 07:14:39;;;;;;;6.00;5.50;;;;;;;30.47;63.54;94717.88;5012586;28;20044;-85
2023/06/27 07:17:05;;;;;;;6.10;5.65;;;;;;;28.95;70.02;94719.88;4999032;28;20120;-83
2023/06/27 07:19:31;;;;;;;8.32;5.45;;;;;;;28.88;74.63;94721.31;5002944;28;20116;-84
2023/06/27 07:21:56;;;;;;;6.45;6.03;;;;;;;28.65;76.66;94717.63;5003008;28;20041;-82
2023/06/27 07:24:22;;;;;;;6.55;5.95;;;;;;;28.13;71.99;94713.28;5002291;28;20026;-82
2023/06/27 07:26:47;;;;;;;6.55;5.95;;;;;;;27.81;76.86;94719.22;5003281;28;20502;-87
2023/06/27 07:29:13;;;;;;;6.95;6.35;;;;;;;27.54;77.56;94708.38;5002169;28;20017;-83
2023/06/27 07:31:38;;;;;;;6.07;5.47;;;;;;;28.34;82.17;94709.28;5012490;28;20034;-82
2023/06/27 07:34:03;;;;;;;8.35;6.07;;;;;;;28.66;78.87;94701.38;5002009;28;20034;-82
2023/06/27 07:36:29;;;;;;;6.65;6.15;;;;;;;28.37;80.05;94698.03;4992695;28;20026;-83
2023/06/27 07:38:58;;;;;;;6.90;6.30;;;;;;;28.24;80.63;94704.88;4990155;28;20032;-82
2023/06/27 07:41:24;;;;;;;10.90;5.93;;;;;;;27.17;78.85;94699.09;5002063;28;20037;-81
2023/06/27 07:43:49;;;;;;;6.93;6.43;;;;;;;27.31;78.55;94706.44;4997217;28;20033;-83
2023/06/27 07:46:15;;;;;;;6.50;6.00;;;;;;;27.94;77.87;94699.91;4984353;28;20018;-83
2023/06/27 07:48:40;;;;;;;7.22;6.65;;;;;;;27.70;77.17;94707.13;4993572;28;20037;-82
2023/06/27 07:51:06;;;;;;;6.75;6.05;;;;;;;27.13;80.17;94708.72;4996200;28;20049;-82
2023/06/27 07:53:31;;;;;;;7.03;6.40;;;;;;;27.94;80.95;94707.09;4981564;28;20030;-83
2023/06/27 07:55:57;;;;;;;5.97;5.47;;;;;;;27.99;80.48;94707.84;4994846;28;20117;-82
2023/06/27 07:58:22;;;;;;;6.60;5.90;;;;;;;27.91;78.04;94710.31;4990697;28;20037;-82
2023/06/27 08:00:48;;;;;;;6.28;5.82;;;;;;;28.11;79.88;94715.44;4982415;28;20030;-81
2023/06/27 08:03:13;;;;;;;5.97;5.45;;;;;;;28.25;81.30;94713.69;4981737;28;20031;-82
2023/06/27 08:05:39;;;;;;;5.78;5.38;;;;;;;27.86;80.56;94710.41;4990086;28;20034;-82
2023/06/27 08:08:04;;;;;;;6.07;5.47;;;;;;;27.68;75.51;94704.72;4983910;28;20041;-81
2023/06/27 08:10:30;;;;;;;7.32;6.07;;;;;;;27.74;76.49;94706.25;4986168;28;20483;-82
2023/06/27 08:12:55;;;;;;;5.90;5.28;;;;;;;28.22;82.10;94711.59;4987152;28;20022;-82
2023/06/27 08:15:22;;;;;;;5.93;5.20;;;;;;;27.99;80.26;94712.38;4999219;28;20083;-83
2023/06/27 08:17:48;;;;;;;6.18;5.38;;;;;;;28.16;78.61;94707.38;4989567;28;20621;-82
2023/06/27 08:20:13;;;;;;;5.53;5.13;;;;;;;28.13;73.09;94700.75;4994175;28;20048;-83
2023/06/27 08:22:39;;;;;;;5.45;5.03;;;;;;;28.17;75.90;94709.78;4990141;28;20495;-82
2023/06/27 08:25:06;;;;;;;6.00;5.20;;;;;;;28.32;74.79;94700.00;4979496;28;20061;-85
2023/06/27 08:27:31;;;;;;;5.47;5.07;;;;;;;28.43;74.36;94696.88;4988092;28;20069;-81
2023/06/27 08:29:57;;;;;;;5.57;5.18;;;;;;;28.44;77.05;94703.81;4988205;28;20058;-81
2023/06/27 08:32:22;;;;;;;5.65;5.15;;;;;;;28.08;73.70;94698.16;4985029;28;20419;-83
2023/06/27 08:34:48;;;;;;;5.68;5.18;;;;;;;27.44;72.71;94698.63;4989654;28;20054;-81
2023/06/27 08:37:13;;;;;;;5.55;4.85;;;;;;;27.89;70.56;94691.97;4976347;28;20042;-84
2023/06/27 08:39:39;;;;;;;4.78;4.40;;;;;;;28.18;70.49;94697.25;4982381;28;20042;-83
2023/06/27 08:42:05;;;;;;;5.78;5.28;;;;;;;27.60;68.53;94696.59;4994166;28;20131;-82
2023/06/27 08:44:31;;;;;;;5.25;4.43;;;;;;;28.35;73.00;94688.75;4995189;28;20073;-81
2023/06/27 08:47:02;;;;;;;5.10;4.68;;;;;;;28.29;72.84;94689.91;4980902;28;20053;-85
2023/06/27 08:49:30;;;;;;;5.22;4.72;;;;;;;28.49;69.27;94679.75;4981200;28;20734;-85
2023/06/27 08:51:56;;;;;;;4.90;3.85;;;;;;;28.32;67.97;94684.78;4999942;28;20054;-82
2023/06/27 08:54:25;;;;;;;4.90;4.43;;;;;;;27.88;72.28;94685.06;5000848;28;20095;-82
2023/06/27 08:56:51;;;;;;;5.10;4.70;;;;;;;27.77;77.57;94694.25;4993245;28;20029;-83
2023/06/27 08:59:19;;;;;;;6.25;5.05;;;;;;;27.51;74.14;94691.09;4996641;28;20037;-82
2023/06/27 09:01:45;;;;;;;6.90;4.63;;;;;;;27.65;78.30;94685.88;5000929;28;20025;-84
2023/06/27 09:04:10;;;;;;;5.40;5.00;;;;;;;27.70;79.71;94678.63;4974762;28;20025;-82
2023/06/27 09:06:39;;;;;;;4.63;4.32;;;;;;;27.34;73.47;94682.72;5002983;28;20565;-82
2023/06/27 09:09:05;;;;;;;;;;;;;;;27.34;75.73;94682.72;4970798;28;20030;-83
2023/06/27 09:11:30;;;;;;;5.65;5.15;;;;;;;27.30;78.67;94684.34;4997942;28;19921;-81
2023/06/27 09:13:56;;;;;;;4.90;4.40;;;;;;;26.95;70.70;94687.34;4999517;28;20471;-81
2023/06/27 09:16:21;;;;;;;5.72;5.20;;;;;;;27.41;74.68;94680.53;4998879;28;20026;-82
2023/06/27 09:18:47;;;;;;;5.78;5.03;;;;;;;27.08;76.97;94682.16;4981940;28;20030;-82
2023/06/27 09:21:13;;;;;;;7.35;5.45;;;;;;;26.82;86.05;94691.44;4975422;28;20112;-82
2023/06/27 09:23:39;;;;;;;7.60;5.85;;;;;;;27.35;89.33;94680.84;4986026;28;20107;-82
2023/06/27 09:26:13;;;;;;;6.25;5.75;;;;;;;27.90;88.96;94674.13;4973003;28;20083;-83
2023/06/27 09:28:46;;;;;;;6.53;5.10;;;;;;;28.03;83.56;94676.09;4985353;28;20042;-83
2023/06/27 09:31:13;;;;;;;6.05;5.65;;;;;;;27.35;75.79;94670.22;4991318;28;20049;-82
2023/06/27 09:33:40;;;;;;;5.40;4.90;;;;;;;27.69;77.35;94678.91;4986591;28;20986;-81
2023/06/27 09:36:06;;;;;;;6.88;5.10;;;;;;;28.19;75.04;94677.53;4974545;28;20030;-82
2023/06/27 09:38:34;;;;;;;5.82;4.45;;;;;;;28.35;73.01;94673.56;4999567;28;20088;-85
2023/06/27 09:41:06;;;;;;;4.47;4.18;;;;;;;28.18;73.35;94676.72;5005591;28;20466;-83
2023/06/27 09:43:35;;;;;;;5.07;4.68;;;;;;;28.04;76.85;94677.66;4986652;28;20163;-81
2023/06/27 09:46:02;;;;;;;5.13;4.72;;;;;;;28.34;76.13;94674.63;4997956;28;20537;-81
2023/06/27 09:48:29;;;;;;;4.90;4.57;;;;;;;28.00;73.17;94672.13;4993788;28;20124;-81
2023/06/27 09:51:01;;;;;;;4.40;4.10;;;;;;;28.01;73.30;94667.59;4992442;28;20069;-81
2023/06/27 09:53:30;;;;;;;5.07;4.03;;;;;;;28.19;74.98;94666.88;5001627;28;20620;-81
2023/06/27 09:55:57;;;;;;;5.18;3.53;;;;;;;27.68;66.55;94675.44;4990081;28;20087;-87
2023/06/27 09:58:29;;;;;;;3.95;3.50;;;;;;;27.94;67.38;94662.63;4999322;28;20068;-83
2023/06/27 10:01:04;;;;;;;4.20;3.90;;;;;;;28.00;72.35;94671.34;5015754;28;20041;-80
2023/06/27 10:03:30;;;;;;;4.78;3.80;;;;;;;28.26;70.34;94670.72;4992008;28;20507;-84
2023/06/27 10:05:56;;;;;;;4.10;3.80;;;;;;;27.91;66.11;94675.72;4985196;28;20109;-80
2023/06/27 10:08:22;;;;;;;4.22;3.88;;;;;;;28.42;69.12;94673.19;4995530;28;20116;-81
2023/06/27 10:10:47;;;;;;;4.00;3.70;;;;;;;28.31;66.22;94664.56;4992436;28;20567;-81
2023/06/27 10:13:13;;;;;;;6.07;3.45;;;;;;;28.21;67.53;94667.34;4993197;28;20087;-80
2023/06/27 10:15:39;;;;;;;3.70;3.40;;;;;;;27.79;67.80;94667.34;4998870;28;20037;-80
2023/06/27 10:18:04;;;;;;;4.85;4.28;;;;;;;27.89;74.21;94662.69;4991456;28;20026;-80
2023/06/27 10:20:30;;;;;;;4.10;3.70;;;;;;;27.45;72.12;94665.63;5003228;28;20092;-78
2023/06/27 10:22:57;;;;;;;4.05;3.65;;;;;;;27.51;70.81;94656.50;5005936;28;20025;-83
2023/06/27 10:25:22;;;;;;;4.35;3.60;;;;;;;27.72;72.96;94655.16;4988858;28;20030;-81
2023/06/27 10:27:48;;;;;;;4.78;4.10;;;;;;;28.08;77.19;94655.53;5006063;28;20056;-79
2023/06/27 10:30:19;;;;;;;4.38;3.80;;;;;;;27.72;68.07;94655.16;5022592;28;20032;-80
2023/06/27 10:32:45;;;;;;;3.88;3.58;;;;;;;27.95;65.79;94652.75;5006173;28;20167;-81
2023/06/27 10:35:11;;;;;;;4.30;3.50;;;;;;;28.27;79.70;94658.22;5004793;28;20136;-83
2023/06/27 10:37:38;;;;;;;4.28;3.83;;;;;;;28.15;68.11;94653.31;5000945;28;20029;-81
2023/06/27 10:40:04;;;;;;;4.07;3.78;;;;;;;28.16;65.22;94646.88;4997155;28;20059;-82
2023/06/27 10:42:31;;;;;;;4.05;3.75;;;;;;;27.83;63.72;94644.41;5004517;28;20124;-84
2023/06/27 10:44:57;;;;;;;3.70;3.40;;;;;;;27.84;63.54;94651.31;4988921;28;20876;-85
2023/06/27 10:47:22;;;;;;;4.10;3.72;;;;;;;28.08;62.42;94646.75;5023960;28;20030;-81
2023/06/27 10:49:49;;;;;;;4.38;3.85;;;;;;;27.77;60.18;94636.44;5008991;28;20056;-82
2023/06/27 10:52:24;;;;;;;3.55;3.25;;;;;;;28.12;60.90;94639.78;5010541;28;20144;-83
2023/06/27 10:55:15;;;;;;;3.80;3.45;;;;;;;27.94;66.90;94641.31;4986801;28;20048;-81
2023/06/27 10:57:44;;;;;;;4.43;3.88;;;;;;;27.84;68.46;94641.44;5003599;28;20054;-82
2023/06/27 11:00:22;;;;;;;3.53;3.22;;;;;;;28.02;63.49;94640.69;5004082;28;20029;-81
2023/06/27 11:02:49;;;;;;;3.60;3.30;;;;;;;27.94;56.24;94632.50;5010636;28;20029;-85
2023/06/27 11:05:18;;;;;;;4.85;3.30;;;;;;;27.48;57.99;94634.97;4984708;28;20026;-82
2023/06/27 11:07:58;;;;;;;3.63;3.33;;;;;;;28.21;61.99;94635.38;4997394;28;20407;-82
2023/06/27 11:10:26;;;;;;;3.83;3.53;;;;;;;27.71;60.71;94634.94;4985050;28;20045;-82
2023/06/27 11:12:56;;;;;;;3.92;3.42;;;;;;;27.89;63.72;94625.41;4985215;28;20038;-83
2023/06/27 11:15:22;;;;;;;4.20;3.80;;;;;;;27.29;56.69;94618.13;4987823;28;20617;-86
2023/06/27 11:17:48;;;;;;;3.67;3.38;;;;;;;27.99;60.69;94616.47;4988684;28;20061;-82
2023/06/27 11:20:13;;;;;;;4.25;3.85;;;;;;;28.16;63.45;94616.78;5005588;28;20045;-82
2023/06/27 11:22:39;;;;;;;4.28;3.85;;;;;;;28.11;61.35;94611.53;4974763;28;20037;-80
2023/06/27 11:25:13;;;;;;;5.20;4.38;;;;;;;28.53;65.83;94610.63;5023912;28;20156;-86
2023/06/27 11:27:38;;;;;;;5.65;3.88;;;;;;;28.26;67.11;94606.78;5002738;28;20034;-85